Time;durP1;ratioP1;P1;durP2;ratioP2;P2;SDS_P1;SDS_P2;PMS_P1;PMS_P2;Temp;Humidity;BMP_temperature;BMP_pressure;BME280_temperature;BME280_humidity;BME280_pressure;Samples;Min_cycle;Max_cycle;Signal;HPM_P1;HPM_P2
2022/07/28 00:01:15;;;;;;;0.40;0.40;;;19.00;93.40;;;;;;5073201;28;20826;-79
2022/07/28 00:03:44;;;;;;;0.43;0.43;;;19.00;93.30;;;;;;5073380;28;20477;-79
2022/07/28 00:06:11;;;;;;;1.17;0.67;;;19.00;93.50;;;;;;5073445;28;20899;-79
2022/07/28 00:08:38;;;;;;;0.60;0.60;;;19.00;93.30;;;;;;5073360;28;20452;-80
2022/07/28 00:11:05;;;;;;;0.90;0.70;;;18.90;93.50;;;;;;5073105;28;21010;-80
2022/07/28 00:13:32;;;;;;;0.80;0.60;;;18.90;93.50;;;;;;5073611;28;20452;-79
2022/07/28 00:15:58;;;;;;;0.60;0.60;;;18.90;93.60;;;;;;5073384;28;20448;-79
2022/07/28 00:18:25;;;;;;;1.13;0.80;;;18.90;93.40;;;;;;5073358;28;20445;-79
2022/07/28 00:20:53;;;;;;;0.70;0.70;;;18.90;93.60;;;;;;5073238;28;20827;-79
2022/07/28 00:23:20;;;;;;;0.60;0.60;;;18.90;93.50;;;;;;5073188;28;20840;-79
2022/07/28 00:25:47;;;;;;;0.60;0.53;;;18.80;93.60;;;;;;5073150;28;20445;-79
2022/07/28 00:28:13;;;;;;;0.40;0.37;;;18.80;93.80;;;;;;5072872;28;20444;-79
2022/07/28 00:30:40;;;;;;;0.50;0.50;;;18.80;93.80;;;;;;5073103;28;20468;-79
2022/07/28 00:33:07;;;;;;;0.40;0.40;;;18.80;93.90;;;;;;5073125;28;20455;-79
2022/07/28 00:35:34;;;;;;;2.60;0.50;;;18.80;94.00;;;;;;5072836;28;20445;-78
2022/07/28 00:38:02;;;;;;;0.50;0.50;;;18.70;94.10;;;;;;5072762;28;20940;-78
2022/07/28 00:43:09;;;;;;;3.37;1.00;;;18.70;94.30;;;;;;5072407;28;20524;-78
2022/07/28 00:45:36;;;;;;;0.57;0.57;;;18.70;94.30;;;;;;5072699;28;20853;-78
2022/07/28 00:48:03;;;;;;;0.80;0.60;;;18.60;94.60;;;;;;5072679;28;20933;-78
2022/07/28 00:50:30;;;;;;;0.87;0.60;;;18.60;94.50;;;;;;5072598;28;20472;-79
2022/07/28 00:52:57;;;;;;;0.83;0.40;;;18.60;94.60;;;;;;5073250;28;20444;-79
2022/07/28 00:55:25;;;;;;;0.70;0.50;;;18.60;94.70;;;;;;5072918;28;20471;-79
2022/07/28 00:57:52;;;;;;;0.50;0.50;;;18.60;94.90;;;;;;5072961;28;20453;-79
2022/07/28 01:00:19;;;;;;;3.57;0.70;;;18.50;94.90;;;;;;5072869;28;20496;-79
2022/07/28 01:02:46;;;;;;;0.63;0.50;;;18.50;95.00;;;;;;5072925;28;20464;-79
2022/07/28 01:05:14;;;;;;;0.93;0.50;;;18.40;95.10;;;;;;5073488;28;20828;-79
2022/07/28 01:07:45;;;;;;;0.90;0.50;;;18.40;95.10;;;;;;5076670;28;20445;-79
2022/07/28 01:10:19;;;;;;;0.70;0.60;;;18.30;95.30;;;;;;5076600;28;20476;-79
2022/07/28 01:12:55;;;;;;;3.97;0.63;;;18.30;95.30;;;;;;5078755;28;20440;-79
2022/07/28 01:15:27;;;;;;;0.50;0.50;;;18.20;95.40;;;;;;5076747;28;20431;-79
2022/07/28 01:18:02;;;;;;;1.17;0.60;;;18.20;95.00;;;;;;5076508;28;20433;-79
2022/07/28 01:20:35;;;;;;;0.80;0.73;;;18.20;94.40;;;;;;5076087;28;20824;-79
2022/07/28 01:23:23;;;;;;;0.47;0.47;;;18.20;94.50;;;;;;5076321;28;20432;-79
2022/07/28 01:26:03;;;;;;;0.70;0.60;;;18.20;95.30;;;;;;5076387;28;20429;-79
2022/07/28 01:28:42;;;;;;;0.40;0.40;;;18.10;95.20;;;;;;5076262;28;20436;-79
2022/07/28 01:31:15;;;;;;;0.53;0.53;;;18.10;95.20;;;;;;5076291;28;20424;-79
2022/07/28 01:33:46;;;;;;;0.70;0.67;;;18.10;95.50;;;;;;5076247;28;20425;-79
2022/07/28 01:36:16;;;;;;;0.60;0.50;;;18.10;95.40;;;;;;5076221;28;20452;-79
2022/07/28 01:38:46;;;;;;;0.50;0.50;;;18.00;95.10;;;;;;5075960;28;20909;-79
2022/07/28 01:41:17;;;;;;;0.50;0.50;;;18.00;95.30;;;;;;5075751;28;20473;-79
2022/07/28 01:43:47;;;;;;;0.40;0.40;;;18.00;95.50;;;;;;5076265;28;20473;-79
2022/07/28 01:46:17;;;;;;;2.17;0.63;;;18.00;95.40;;;;;;5077075;28;20508;-78
2022/07/28 01:48:46;;;;;;;0.40;0.40;;;17.90;95.30;;;;;;5076186;28;20804;-78
2022/07/28 01:51:14;;;;;;;0.73;0.73;;;17.90;95.30;;;;;;5075608;28;20440;-78
2022/07/28 01:53:42;;;;;;;0.60;0.40;;;17.90;95.40;;;;;;5075875;28;20510;-78
2022/07/28 01:56:10;;;;;;;0.50;0.50;;;17.90;95.70;;;;;;5075807;28;20451;-78
2022/07/28 01:58:38;;;;;;;0.50;0.50;;;17.80;94.90;;;;;;5075431;28;20444;-78
2022/07/28 02:01:06;;;;;;;0.70;0.70;;;17.80;95.30;;;;;;5075893;28;20449;-78
2022/07/28 02:03:34;;;;;;;0.50;0.50;;;17.80;95.50;;;;;;5075513;28;21025;-79
2022/07/28 02:06:02;;;;;;;0.40;0.40;;;17.80;95.80;;;;;;5075598;28;20453;-79
2022/07/28 02:08:31;;;;;;;0.43;0.43;;;17.80;95.90;;;;;;5075607;28;20464;-79
2022/07/28 02:13:44;;;;;;;0.40;0.40;;;17.70;95.60;;;;;;5075362;28;20765;-79
2022/07/28 02:16:13;;;;;;;0.50;0.40;;;17.70;95.30;;;;;;5074969;28;20559;-79
2022/07/28 02:18:43;;;;;;;0.40;0.40;;;17.70;95.90;;;;;;5074617;28;20445;-79
2022/07/28 02:21:11;;;;;;;5.50;0.67;;;17.60;95.80;;;;;;5075386;28;20460;-79
2022/07/28 02:23:41;;;;;;;6.83;0.80;;;17.60;95.50;;;;;;5074982;28;20476;-79
2022/07/28 02:26:10;;;;;;;0.50;0.50;;;17.60;96.00;;;;;;5075225;28;20444;-79
2022/07/28 02:28:38;;;;;;;0.50;0.50;;;17.60;96.10;;;;;;5075117;28;20445;-79
2022/07/28 02:31:11;;;;;;;0.77;0.50;;;17.60;96.40;;;;;;5075161;28;20440;-78
2022/07/28 02:33:42;;;;;;;0.90;0.60;;;17.50;96.30;;;;;;5075140;28;20429;-79
2022/07/28 02:36:15;;;;;;;0.80;0.80;;;17.50;96.20;;;;;;5075203;28;20451;-78
2022/07/28 02:38:45;;;;;;;0.80;0.70;;;17.50;96.30;;;;;;5075360;28;20453;-78
2022/07/28 02:41:17;;;;;;;0.80;0.60;;;17.40;96.60;;;;;;5074730;28;20481;-78
2022/07/28 02:43:48;;;;;;;0.50;0.40;;;17.40;96.50;;;;;;5074990;28;20473;-78
2022/07/28 02:46:18;;;;;;;0.40;0.40;;;17.30;96.70;;;;;;5074883;28;20433;-78
2022/07/28 02:48:49;;;;;;;1.00;0.70;;;17.30;96.70;;;;;;5074462;28;20904;-78
2022/07/28 02:51:18;;;;;;;0.50;0.50;;;17.30;96.50;;;;;;5074522;28;20923;-78
2022/07/28 02:53:45;;;;;;;0.40;0.40;;;17.20;96.70;;;;;;5074415;28;20815;-78
2022/07/28 02:56:15;;;;;;;0.60;0.60;;;17.20;96.80;;;;;;5074594;28;20437;-78
2022/07/28 02:58:42;;;;;;;1.27;0.73;;;17.10;96.90;;;;;;5074517;28;20448;-78
2022/07/28 03:01:09;;;;;;;0.40;0.40;;;17.10;97.00;;;;;;5074240;28;20948;-78
2022/07/28 03:03:36;;;;;;;0.50;0.50;;;17.10;97.00;;;;;;5074415;28;20445;-79
2022/07/28 03:06:04;;;;;;;0.70;0.40;;;17.00;96.90;;;;;;5074151;28;20822;-79
2022/07/28 03:08:31;;;;;;;0.50;0.50;;;17.00;97.00;;;;;;5074051;28;20437;-79
2022/07/28 03:11:08;;;;;;;0.70;0.40;;;16.90;97.30;;;;;;5074338;28;20444;-79
2022/07/28 03:13:35;;;;;;;0.60;0.60;;;16.90;97.20;;;;;;5074302;28;20476;-79
2022/07/28 03:16:02;;;;;;;0.50;0.50;;;16.90;97.10;;;;;;5074552;28;20807;-78
2022/07/28 03:18:29;;;;;;;0.60;0.60;;;16.80;97.20;;;;;;5074246;28;20475;-78
2022/07/28 03:20:56;;;;;;;0.93;0.50;;;16.80;97.40;;;;;;5076887;28;20449;-79
2022/07/28 03:23:29;;;;;;;0.77;0.60;;;16.70;97.50;;;;;;5074122;28;20445;-79
2022/07/28 03:26:01;;;;;;;0.50;0.50;;;16.60;97.60;;;;;;5074342;28;20469;-79
2022/07/28 03:28:29;;;;;;;0.70;0.50;;;16.60;97.80;;;;;;5073736;28;20438;-79
2022/07/28 03:31:00;;;;;;;0.50;0.50;;;16.50;98.00;;;;;;5073988;28;20460;-79
2022/07/28 03:33:27;;;;;;;0.67;0.43;;;16.50;98.10;;;;;;5074218;28;20444;-79
2022/07/28 03:35:58;;;;;;;2.70;0.70;;;16.50;98.10;;;;;;5073908;28;20443;-79
2022/07/28 03:38:29;;;;;;;0.50;0.40;;;16.40;98.20;;;;;;5073867;28;20433;-79
2022/07/28 03:40:57;;;;;;;1.70;0.60;;;16.40;98.00;;;;;;5073431;28;20572;-79
2022/07/28 03:43:26;;;;;;;0.60;0.50;;;16.40;98.60;;;;;;5073452;28;20448;-79
2022/07/28 03:45:53;;;;;;;0.43;0.43;;;16.30;98.30;;;;;;5073414;28;20473;-79
2022/07/28 03:48:22;;;;;;;1.80;0.40;;;16.30;98.40;;;;;;5073644;28;20448;-79
2022/07/28 03:50:48;;;;;;;0.60;0.53;;;16.30;98.60;;;;;;5073323;28;21041;-79
2022/07/28 03:53:21;;;;;;;0.57;0.57;;;16.30;98.70;;;;;;5073599;28;20460;-79
2022/07/28 03:55:50;;;;;;;0.43;0.43;;;16.20;98.80;;;;;;5073681;28;20790;-79
2022/07/28 03:58:17;;;;;;;1.70;0.40;;;16.20;98.90;;;;;;5073917;28;20444;-78
2022/07/28 04:00:44;;;;;;;1.53;0.50;;;16.20;98.90;;;;;;5073131;28;20469;-78
2022/07/28 04:03:10;;;;;;;0.40;0.40;;;16.20;98.90;;;;;;5073056;28;20851;-78
2022/07/28 04:05:37;;;;;;;0.40;0.40;;;16.20;98.90;;;;;;5073186;28;20476;-77
2022/07/28 04:08:04;;;;;;;1.03;0.93;;;16.10;98.50;;;;;;5073133;28;20944;-77
2022/07/28 04:10:31;;;;;;;0.77;0.77;;;16.20;98.90;;;;;;5073324;28;20472;-77
2022/07/28 04:13:00;;;;;;;0.60;0.50;;;16.10;98.70;;;;;;5073585;28;20453;-77
2022/07/28 04:15:27;;;;;;;0.77;0.40;;;16.10;98.80;;;;;;5073070;28;20515;-77
2022/07/28 04:17:55;;;;;;;0.73;0.30;;;16.10;98.70;;;;;;5073016;28;20447;-77
2022/07/28 04:20:23;;;;;;;0.50;0.40;;;16.10;98.90;;;;;;5072952;28;20472;-77
2022/07/28 04:22:51;;;;;;;0.60;0.50;;;16.00;99.20;;;;;;5072908;28;20822;-77
2022/07/28 04:25:20;;;;;;;0.40;0.40;;;16.00;99.20;;;;;;5073175;28;20481;-76
2022/07/28 04:27:47;;;;;;;0.57;0.57;;;16.00;99.40;;;;;;5072921;28;20445;-77
2022/07/28 04:30:17;;;;;;;0.40;0.40;;;16.10;99.40;;;;;;5073228;28;20475;-77
2022/07/28 04:32:45;;;;;;;0.40;0.33;;;16.10;99.40;;;;;;5073025;28;20931;-77
2022/07/28 04:35:12;;;;;;;2.53;0.43;;;16.20;99.70;;;;;;5073159;28;20541;-77
2022/07/28 04:37:39;;;;;;;2.00;0.60;;;16.20;99.50;;;;;;5073113;28;20452;-77
2022/07/28 04:40:08;;;;;;;0.50;0.50;;;16.30;99.40;;;;;;5073122;28;21013;-77
2022/07/28 04:42:36;;;;;;;1.10;0.40;;;16.30;99.40;;;;;;5077230;28;20428;-77
2022/07/28 04:45:05;;;;;;;0.70;0.40;;;16.30;99.40;;;;;;5077001;28;20480;-77
2022/07/28 04:47:34;;;;;;;1.10;0.50;;;16.40;99.40;;;;;;5077051;28;20449;-77
2022/07/28 04:50:00;;;;;;;0.60;0.60;;;16.40;99.50;;;;;;5077437;28;20468;-77
2022/07/28 04:52:27;;;;;;;0.47;0.40;;;16.50;99.60;;;;;;5076590;28;20952;-77
2022/07/28 04:54:54;;;;;;;0.50;0.50;;;16.50;99.80;;;;;;5076945;28;20449;-77
2022/07/28 04:57:21;;;;;;;0.50;0.50;;;16.50;99.30;;;;;;5076519;28;20456;-77
2022/07/28 04:59:47;;;;;;;0.60;0.53;;;16.60;99.20;;;;;;5076746;28;20465;-77
2022/07/28 05:02:14;;;;;;;1.87;0.67;;;16.60;99.60;;;;;;5076468;28;20938;-77
2022/07/28 05:04:43;;;;;;;0.67;0.67;;;16.60;99.80;;;;;;5076618;28;20547;-77
2022/07/28 05:07:10;;;;;;;0.87;0.60;;;16.70;99.90;;;;;;5076647;28;20437;-77
2022/07/28 05:09:36;;;;;;;0.40;0.40;;;16.70;99.60;;;;;;5076235;28;20862;-77
2022/07/28 05:12:05;;;;;;;0.40;0.40;;;16.80;99.90;;;;;;5076542;28;20440;-77
2022/07/28 05:14:32;;;;;;;0.53;0.53;;;16.80;99.70;;;;;;5076477;28;20521;-77
2022/07/28 05:16:59;;;;;;;0.50;0.50;;;17.00;99.50;;;;;;5076678;28;20440;-77
2022/07/28 05:19:25;;;;;;;0.50;0.40;;;17.10;99.00;;;;;;5076372;28;20491;-77
2022/07/28 05:21:53;;;;;;;0.97;0.60;;;17.20;99.30;;;;;;5076345;28;20448;-77
2022/07/28 05:24:20;;;;;;;0.80;0.70;;;17.20;99.20;;;;;;5076252;28;20472;-77
2022/07/28 05:26:47;;;;;;;1.03;0.97;;;17.30;99.80;;;;;;5076269;28;20451;-77
2022/07/28 05:29:13;;;;;;;0.97;0.53;;;17.40;99.00;;;;;;5076177;28;20473;-77
2022/07/28 05:31:40;;;;;;;0.50;0.50;;;17.40;98.60;;;;;;5077137;28;20441;-77
2022/07/28 05:34:07;;;;;;;0.43;0.43;;;17.40;98.80;;;;;;5076141;28;20448;-77
2022/07/28 05:36:35;;;;;;;1.17;0.70;;;17.50;98.60;;;;;;5076356;28;20444;-77
2022/07/28 05:39:03;;;;;;;0.60;0.60;;;17.40;98.90;;;;;;5076214;28;20551;-77
2022/07/28 05:41:30;;;;;;;0.47;0.47;;;17.40;99.60;;;;;;5075848;28;20480;-77
2022/07/28 05:43:57;;;;;;;0.60;0.60;;;17.40;99.60;;;;;;5075787;28;20936;-77
2022/07/28 05:46:24;;;;;;;0.60;0.50;;;17.30;99.50;;;;;;5075859;28;20477;-77
2022/07/28 05:48:51;;;;;;;2.70;0.50;;;17.30;99.80;;;;;;5075794;28;20457;-77
2022/07/28 05:51:18;;;;;;;0.50;0.40;;;17.30;99.50;;;;;;5075557;28;20459;-77
2022/07/28 05:53:45;;;;;;;0.60;0.60;;;17.40;99.50;;;;;;5075478;28;20445;-77
2022/07/28 05:56:13;;;;;;;3.50;0.60;;;17.50;99.90;;;;;;5075785;28;20843;-77
2022/07/28 05:58:40;;;;;;;0.60;0.60;;;17.60;99.90;;;;;;5075625;28;20820;-77
2022/07/28 06:01:07;;;;;;;1.40;0.50;;;17.70;99.40;;;;;;5075361;28;20440;-77
2022/07/28 06:03:34;;;;;;;2.33;0.63;;;17.80;99.50;;;;;;5075594;28;20448;-77
2022/07/28 06:06:01;;;;;;;1.00;0.83;;;18.00;99.30;;;;;;5075522;28;20567;-77
2022/07/28 06:08:28;;;;;;;0.50;0.40;;;18.20;98.80;;;;;;5075544;28;20448;-77
2022/07/28 06:11:07;;;;;;;0.60;0.60;;;18.40;98.00;;;;;;5075120;28;20837;-77
2022/07/28 06:13:36;;;;;;;0.60;0.60;;;18.50;98.20;;;;;;5075489;28;20524;-77
2022/07/28 06:16:03;;;;;;;0.73;0.60;;;18.70;97.80;;;;;;5075360;28;20445;-77
2022/07/28 06:18:30;;;;;;;3.90;0.53;;;18.80;97.60;;;;;;5075388;28;20457;-77
2022/07/28 06:20:57;;;;;;;0.63;0.60;;;18.90;97.70;;;;;;5075270;28;20456;-77
2022/07/28 06:23:24;;;;;;;0.53;0.47;;;19.00;97.60;;;;;;5075262;28;20441;-77
2022/07/28 06:25:51;;;;;;;0.80;0.73;;;19.20;97.70;;;;;;5074869;28;20496;-77
2022/07/28 06:28:18;;;;;;;2.10;0.50;;;19.30;97.50;;;;;;5075433;28;20444;-77
2022/07/28 06:30:47;;;;;;;0.93;0.50;;;19.40;97.20;;;;;;5074777;28;20515;-77
2022/07/28 06:33:13;;;;;;;0.67;0.50;;;19.60;97.40;;;;;;5075081;28;20440;-77
2022/07/28 06:35:40;;;;;;;0.60;0.60;;;19.80;97.40;;;;;;5074831;28;20453;-77
2022/07/28 06:38:07;;;;;;;1.30;0.90;;;20.10;97.10;;;;;;5074965;28;20448;-77
2022/07/28 06:40:34;;;;;;;1.33;0.70;;;20.30;96.70;;;;;;5074640;28;20488;-77
2022/07/28 06:43:01;;;;;;;1.10;0.90;;;20.50;96.90;;;;;;5074884;28;20463;-77
2022/07/28 06:45:27;;;;;;;1.67;0.90;;;20.60;97.10;;;;;;5074803;28;20480;-76
2022/07/28 06:47:56;;;;;;;0.80;0.80;;;20.90;96.90;;;;;;5074777;28;20476;-76
2022/07/28 06:50:22;;;;;;;1.30;1.00;;;21.10;97.00;;;;;;5074690;28;20469;-76
2022/07/28 06:52:49;;;;;;;1.13;1.03;;;21.30;97.40;;;;;;5074699;28;20444;-76
2022/07/28 06:55:16;;;;;;;2.10;1.30;;;21.40;97.10;;;;;;5074923;28;20433;-77
2022/07/28 06:57:43;;;;;;;2.83;1.00;;;21.50;96.90;;;;;;5074589;28;20452;-77
2022/07/28 07:00:12;;;;;;;1.53;0.90;;;21.60;96.70;;;;;;5074276;28;20453;-76
2022/07/28 07:02:40;;;;;;;1.27;1.17;;;21.70;96.40;;;;;;5073962;28;20455;-77
2022/07/28 07:05:10;;;;;;;1.40;1.30;;;21.70;96.70;;;;;;5074292;28;20480;-77
2022/07/28 07:07:36;;;;;;;1.23;1.00;;;21.90;96.90;;;;;;5074416;28;20451;-77
2022/07/28 07:10:04;;;;;;;2.33;1.73;;;22.10;96.30;;;;;;5074366;28;20477;-77
2022/07/28 07:12:33;;;;;;;1.37;1.23;;;22.30;96.00;;;;;;5074369;28;20463;-77
2022/07/28 07:14:59;;;;;;;2.47;0.90;;;22.40;96.00;;;;;;5074274;28;20453;-77
2022/07/28 07:17:26;;;;;;;2.60;1.50;;;22.50;95.80;;;;;;5074202;28;20448;-77
2022/07/28 07:19:53;;;;;;;1.60;1.50;;;22.50;96.60;;;;;;5074079;28;20471;-77
2022/07/28 07:22:21;;;;;;;2.60;1.33;;;22.60;96.20;;;;;;5074155;28;20467;-77
2022/07/28 07:24:48;;;;;;;1.70;1.60;;;22.70;96.40;;;;;;5073960;28;20476;-76
2022/07/28 07:27:15;;;;;;;1.53;1.43;;;22.70;96.20;;;;;;5073975;28;20487;-77
2022/07/28 07:29:42;;;;;;;1.53;1.43;;;22.80;96.10;;;;;;5073858;28;20471;-77
2022/07/28 07:32:08;;;;;;;2.80;1.23;;;22.90;96.30;;;;;;5073592;28;20971;-77
2022/07/28 07:34:35;;;;;;;1.70;1.43;;;23.10;96.00;;;;;;5073925;28;20441;-77
2022/07/28 07:37:02;;;;;;;4.30;1.87;;;23.20;95.90;;;;;;5073910;28;20455;-77
2022/07/28 07:39:30;;;;;;;1.53;1.40;;;23.30;96.20;;;;;;5073504;28;20460;-76
2022/07/28 07:41:56;;;;;;;2.43;1.67;;;23.30;96.10;;;;;;5073810;28;20472;-77
2022/07/28 07:44:23;;;;;;;1.43;1.33;;;23.40;96.10;;;;;;5073511;28;20940;-76
2022/07/28 07:46:50;;;;;;;2.00;1.40;;;23.50;95.30;;;;;;5073645;28;20483;-76
2022/07/28 07:49:17;;;;;;;4.50;1.70;;;23.60;95.90;;;;;;5073721;28;20471;-77
2022/07/28 07:51:44;;;;;;;2.10;1.77;;;23.90;95.20;;;;;;5073553;28;20738;-77
2022/07/28 07:54:10;;;;;;;3.70;1.50;;;24.00;95.20;;;;;;5073313;28;20198;-76
2022/07/28 07:56:38;;;;;;;4.20;1.60;;;24.20;95.10;;;;;;5073631;28;20198;-77
2022/07/28 07:59:06;;;;;;;4.15;1.85;;;24.20;95.00;;;;;;5073496;28;20233;-77
2022/07/28 08:01:33;;;;;;;1.40;1.30;;;24.40;95.00;;;;;;5073539;28;20577;-77
2022/07/28 08:04:00;;;;;;;1.48;1.38;;;24.50;94.70;;;;;;5073553;28;20187;-77
2022/07/28 08:06:27;;;;;;;2.20;2.00;;;24.40;94.70;;;;;;5073386;28;20275;-77
2022/07/28 08:08:54;;;;;;;1.13;1.13;;;24.60;94.60;;;;;;5073043;28;20287;-77
2022/07/28 08:11:21;;;;;;;2.03;1.40;;;24.90;94.30;;;;;;5072934;28;20673;-76
2022/07/28 08:13:49;;;;;;;2.22;1.45;;;24.90;94.20;;;;;;5073354;28;20221;-77
2022/07/28 08:16:16;;;;;;;5.43;2.10;;;25.00;93.80;;;;;;5073401;28;20224;-77
2022/07/28 08:18:43;;;;;;;2.28;1.85;;;25.20;93.70;;;;;;5073287;28;20217;-77
2022/07/28 08:21:11;;;;;;;1.80;1.70;;;25.30;93.60;;;;;;5073330;28;20233;-77
2022/07/28 08:23:38;;;;;;;2.08;1.85;;;25.50;93.30;;;;;;5073340;28;20572;-77
2022/07/28 08:26:05;;;;;;;2.08;1.95;;;25.60;93.10;;;;;;5073020;28;20213;-77
2022/07/28 08:28:32;;;;;;;1.90;1.80;;;25.60;93.10;;;;;;5073273;28;20201;-77
2022/07/28 08:31:00;;;;;;;2.20;1.83;;;25.70;93.00;;;;;;5073307;28;20197;-77
2022/07/28 08:33:26;;;;;;;1.80;1.70;;;25.80;92.70;;;;;;5072951;28;20578;-77
2022/07/28 08:35:53;;;;;;;1.55;1.45;;;25.80;92.70;;;;;;5072941;28;20201;-77
2022/07/28 08:38:20;;;;;;;2.63;1.60;;;25.70;92.30;;;;;;5073530;28;20202;-77
2022/07/28 08:40:50;;;;;;;2.25;1.50;;;25.60;92.70;;;;;;5073086;28;20238;-77
2022/07/28 08:43:30;;;;;;;1.27;1.27;;;25.50;93.30;;;;;;5073151;28;20298;-77
2022/07/28 08:45:58;;;;;;;2.47;1.70;;;25.60;93.40;;;;;;5073114;28;20217;-77
2022/07/28 08:48:29;;;;;;;1.95;1.80;;;25.70;93.30;;;;;;5073023;28;20204;-77
2022/07/28 08:50:58;;;;;;;2.45;1.67;;;25.90;93.00;;;;;;5072998;28;20233;-77
2022/07/28 08:53:25;;;;;;;2.53;2.33;;;26.00;92.90;;;;;;5073011;28;20669;-77
2022/07/28 08:55:53;;;;;;;2.38;2.17;;;26.00;93.40;;;;;;5073005;28;20202;-77
2022/07/28 08:58:20;;;;;;;1.60;1.50;;;26.00;92.90;;;;;;5072993;28;20206;-77
2022/07/28 09:00:47;;;;;;;2.40;1.98;;;25.90;93.40;;;;;;5073169;28;20229;-77
2022/07/28 09:03:14;;;;;;;2.95;1.98;;;26.00;92.70;;;;;;5072962;28;20205;-77
2022/07/28 09:05:43;;;;;;;2.10;1.88;;;26.00;93.60;;;;;;5072866;28;20209;-77
2022/07/28 09:08:12;;;;;;;3.72;2.42;;;26.10;93.00;;;;;;5072605;28;20232;-76
2022/07/28 09:10:38;;;;;;;1.83;1.40;;;26.20;92.60;;;;;;5072855;28;20222;-77
2022/07/28 09:13:05;;;;;;;2.17;1.98;;;26.10;92.60;;;;;;5073120;28;20206;-77
2022/07/28 09:15:33;;;;;;;2.00;1.63;;;26.10;92.90;;;;;;5072906;28;20202;-77
2022/07/28 09:18:00;;;;;;;2.17;1.98;;;26.20;92.80;;;;;;5072826;28;20255;-76
2022/07/28 09:20:29;;;;;;;3.10;2.15;;;26.30;92.40;;;;;;5072709;28;20585;-77
2022/07/28 09:22:58;;;;;;;2.80;2.00;;;26.40;92.50;;;;;;5072734;28;20252;-77
2022/07/28 09:25:26;;;;;;;2.30;2.10;;;26.50;93.00;;;;;;5072860;28;20234;-77
2022/07/28 09:27:53;;;;;;;2.65;1.63;;;26.70;93.70;;;;;;5075885;28;20222;-77
2022/07/28 09:30:31;;;;;;;1.65;1.30;;;27.10;92.60;;;;;;5076395;28;20222;-77
2022/07/28 09:33:16;;;;;;;2.63;2.25;;;27.20;91.70;;;;;;5076324;28;20190;-77
2022/07/28 09:35:48;;;;;;;1.58;1.40;;;27.20;91.60;;;;;;5076326;28;20186;-77
2022/07/28 09:38:16;;;;;;;2.22;1.80;;;27.10;91.50;;;;;;5076260;28;20186;-77
2022/07/28 09:40:56;;;;;;;1.92;1.40;;;26.90;91.30;;;;;;5075880;28;20245;-77
2022/07/28 09:43:32;;;;;;;4.78;2.00;;;26.70;91.90;;;;;;5076150;28;20251;-77
2022/07/28 09:46:04;;;;;;;2.50;1.75;;;26.60;91.90;;;;;;5076067;28;20212;-77
2022/07/28 09:48:31;;;;;;;3.55;2.00;;;26.60;92.10;;;;;;5076018;28;20293;-77
2022/07/28 09:51:10;;;;;;;1.77;1.58;;;26.60;92.60;;;;;;5075941;28;20225;-77
2022/07/28 09:53:39;;;;;;;2.65;1.60;;;26.90;91.80;;;;;;5075951;28;20612;-77
2022/07/28 09:56:05;;;;;;;2.05;1.95;;;27.00;91.50;;;;;;5075888;28;20202;-76
2022/07/28 09:58:32;;;;;;;3.03;1.80;;;27.10;91.40;;;;;;5075855;28;20213;-77
2022/07/28 10:01:04;;;;;;;2.00;1.80;;;27.20;91.40;;;;;;5075805;28;20201;-77
2022/07/28 10:03:31;;;;;;;1.60;1.50;;;27.30;91.10;;;;;;5075473;28;20194;-77
2022/07/28 10:05:58;;;;;;;2.20;2.10;;;27.20;92.00;;;;;;5075352;28;20564;-77
2022/07/28 10:08:44;;;;;;;2.15;1.77;;;27.10;90.70;;;;;;5075607;28;20202;-78
2022/07/28 10:11:13;;;;;;;1.45;1.35;;;27.20;91.40;;;;;;5076115;28;20672;-77
2022/07/28 10:13:57;;;;;;;2.30;1.83;;;27.40;90.70;;;;;;5075552;28;20206;-77
2022/07/28 10:16:25;;;;;;;1.75;1.65;;;27.50;90.10;;;;;;5075639;28;20189;-80
2022/07/28 10:18:52;;;;;;;1.67;1.58;;;27.50;90.50;;;;;;5075375;28;20202;-77
2022/07/28 10:21:19;;;;;;;2.10;2.00;;;27.40;90.50;;;;;;5075088;28;20566;-76
2022/07/28 10:23:49;;;;;;;2.22;1.60;;;27.10;90.30;;;;;;5075709;28;20559;-77
2022/07/28 10:26:19;;;;;;;2.33;1.92;;;27.10;90.50;;;;;;5075038;28;20209;-76
2022/07/28 10:28:50;;;;;;;2.28;2.08;;;27.00;90.80;;;;;;5075583;28;20202;-76
2022/07/28 10:31:32;;;;;;;1.83;1.73;;;27.00;90.40;;;;;;5075268;28;20189;-77
2022/07/28 10:34:00;;;;;;;2.38;2.17;;;27.10;90.60;;;;;;5075208;28;20209;-77
2022/07/28 10:36:27;;;;;;;1.27;1.25;;;27.40;90.70;;;;;;5075144;28;20202;-77
2022/07/28 10:39:11;;;;;;;2.20;1.80;;;27.80;89.80;;;;;;5073657;28;20271;-77
2022/07/28 10:41:40;;;;;;;2.42;1.85;;;28.00;89.50;;;;;;5074880;28;20230;-76
2022/07/28 10:44:12;;;;;;;1.70;1.60;;;28.10;89.10;;;;;;5074636;28;20563;-76
2022/07/28 10:46:40;;;;;;;1.77;1.63;;;28.10;87.80;;;;;;5075418;28;20206;-76
2022/07/28 10:49:08;;;;;;;1.67;1.58;;;27.90;87.50;;;;;;5074835;28;20222;-78
2022/07/28 10:51:35;;;;;;;1.60;1.50;;;27.80;87.90;;;;;;5074794;28;20209;-77
2022/07/28 10:54:18;;;;;;;1.85;1.75;;;27.70;89.90;;;;;;5074798;28;20229;-78
2022/07/28 10:56:50;;;;;;;2.03;1.48;;;27.80;88.80;;;;;;5074752;28;20189;-78
2022/07/28 10:59:48;;;;;;;1.40;1.30;;;27.60;87.60;;;;;;5074621;28;20263;-78
2022/07/28 11:02:57;;;;;;;2.42;1.83;;;27.40;89.70;;;;;;5074840;28;20203;-79
2022/07/28 11:05:32;;;;;;;1.73;1.63;;;27.50;89.10;;;;;;5070468;28;20210;-79
2022/07/28 11:08:01;;;;;;;2.72;2.03;;;28.00;86.90;;;;;;5074701;28;20213;-78
2022/07/28 11:10:30;;;;;;;3.00;1.50;;;28.30;85.90;;;;;;5074472;28;20236;-79
2022/07/28 11:12:59;;;;;;;1.42;1.33;;;28.60;85.40;;;;;;5074388;28;20209;-79
2022/07/28 11:15:31;;;;;;;1.63;1.52;;;29.00;82.90;;;;;;5074421;28;20547;-79
2022/07/28 11:17:59;;;;;;;1.70;1.60;;;29.10;83.60;;;;;;5074034;28;20638;-79
2022/07/28 11:21:08;;;;;;;2.70;2.10;;;28.90;83.20;;;;;;5074203;28;20218;-78
2022/07/28 11:23:40;;;;;;;3.53;1.60;;;28.50;82.20;;;;;;5038152;28;20206;-79
2022/07/28 11:26:35;;;;;;;1.65;1.50;;;28.00;84.60;;;;;;5073880;28;20563;-78
2022/07/28 11:29:15;;;;;;;2.65;1.88;;;27.90;84.80;;;;;;5060105;28;20257;-78
2022/07/28 11:32:01;;;;;;;1.83;1.73;;;27.70;84.40;;;;;;5074006;28;20201;-79
2022/07/28 11:34:48;;;;;;;1.38;1.27;;;27.80;86.00;;;;;;5073922;28;20206;-78
2022/07/28 11:37:14;;;;;;;1.48;1.38;;;27.90;85.50;;;;;;5073663;28;20194;-78
2022/07/28 11:39:42;;;;;;;1.55;1.45;;;28.10;85.40;;;;;;5074134;28;20233;-79
2022/07/28 11:42:27;;;;;;;2.00;1.90;;;28.00;83.60;;;;;;5073664;28;20705;-78
2022/07/28 11:44:54;;;;;;;1.63;1.52;;;28.10;84.60;;;;;;5073567;28;20703;-80
2022/07/28 11:47:22;;;;;;;2.42;1.77;;;28.30;83.50;;;;;;5073411;28;20214;-78
2022/07/28 11:50:10;;;;;;;2.33;1.35;;;28.20;83.30;;;;;;5073440;28;20309;-78
2022/07/28 11:52:37;;;;;;;1.58;1.48;;;28.00;83.20;;;;;;5073657;28;20189;-78
2022/07/28 11:55:05;;;;;;;2.08;1.98;;;27.90;82.20;;;;;;5073336;28;20681;-78
2022/07/28 11:57:39;;;;;;;1.65;1.40;;;28.00;83.50;;;;;;5073578;28;20202;-78
2022/07/28 12:00:08;;;;;;;2.25;1.60;;;28.00;83.10;;;;;;5073853;28;20290;-78
2022/07/28 12:02:35;;;;;;;1.35;1.25;;;27.90;82.00;;;;;;5073268;28;20264;-78
2022/07/28 12:05:06;;;;;;;1.50;1.40;;;27.90;82.60;;;;;;5073540;28;20202;-78
2022/07/28 12:07:36;;;;;;;1.55;1.45;;;27.90;83.10;;;;;;5073530;28;20210;-78
2022/07/28 12:10:26;;;;;;;1.33;0.90;;;28.00;82.10;;;;;;5073708;28;20222;-78
2022/07/28 12:12:57;;;;;;;1.10;1.02;;;28.10;81.50;;;;;;5073807;28;20197;-78
2022/07/28 12:15:24;;;;;;;2.63;1.85;;;28.10;80.20;;;;;;5073496;28;20182;-79
2022/07/28 12:17:51;;;;;;;1.95;1.23;;;28.10;80.90;;;;;;5073453;28;20212;-78
2022/07/28 12:20:18;;;;;;;1.50;1.40;;;28.20;79.50;;;;;;5073051;28;20226;-78
2022/07/28 12:22:56;;;;;;;1.30;1.23;;;28.10;78.80;;;;;;5073327;28;20210;-78
2022/07/28 12:25:23;;;;;;;5.07;1.95;;;28.00;78.50;;;;;;5073297;28;20205;-78
2022/07/28 12:27:49;;;;;;;2.15;1.77;;;27.90;79.90;;;;;;5073236;28;20251;-76
2022/07/28 12:30:23;;;;;;;1.00;0.98;;;27.90;80.10;;;;;;5073232;28;20226;-76
2022/07/28 12:32:51;;;;;;;1.35;1.25;;;27.90;80.70;;;;;;5073320;28;20626;-76
2022/07/28 12:35:18;;;;;;;1.80;1.67;;;27.90;79.70;;;;;;5073288;28;20297;-76
2022/07/28 12:37:47;;;;;;;1.10;1.00;;;27.80;78.40;;;;;;5073278;28;20185;-76
2022/07/28 12:40:15;;;;;;;1.20;1.20;;;27.70;77.60;;;;;;5073102;28;20271;-76
2022/07/28 12:42:42;;;;;;;1.40;1.30;;;27.60;78.60;;;;;;5073236;28;20206;-76
2022/07/28 12:45:11;;;;;;;1.30;1.20;;;27.50;80.40;;;;;;5072911;28;20646;-76
2022/07/28 12:47:39;;;;;;;1.80;1.42;;;27.60;77.70;;;;;;5073076;28;20312;-76
2022/07/28 12:50:12;;;;;;;1.00;1.00;;;27.60;78.50;;;;;;5073059;28;20275;-76
2022/07/28 12:52:39;;;;;;;2.25;1.55;;;27.60;79.20;;;;;;5073099;28;20248;-76
2022/07/28 12:55:23;;;;;;;1.90;1.25;;;27.60;79.80;;;;;;5073062;28;20206;-76
2022/07/28 12:57:51;;;;;;;1.65;1.55;;;27.80;79.50;;;;;;5072771;28;20638;-76
2022/07/28 13:00:20;;;;;;;1.52;1.42;;;27.80;79.80;;;;;;5072643;28;20640;-76
2022/07/28 13:02:50;;;;;;;3.65;1.73;;;27.90;78.80;;;;;;5076241;28;20209;-76
2022/07/28 13:05:31;;;;;;;2.05;1.80;;;27.80;79.10;;;;;;5076879;28;20210;-76